Time;durP1;ratioP1;P1;durP2;ratioP2;P2;SDS_P1;SDS_P2;PMS_P1;PMS_P2;Temp;Humidity;BMP_temperature;BMP_pressure;BME280_temperature;BME280_humidity;BME280_pressure;Samples;Min_cycle;Max_cycle;Signal;HPM_P1;HPM_P2
2022/12/22 03:26:48;;;;;;;7.47;1.33;;;22.00;58.00;;;;;;5055961;28;20175;-71
2022/12/22 03:29:16;;;;;;;3.67;1.37;;;22.00;58.60;;;;;;5054898;28;20237;-70
2022/12/22 03:31:43;;;;;;;7.03;1.63;;;22.00;59.20;;;;;;5054533;28;20211;-68
2022/12/22 03:34:10;;;;;;;4.87;1.00;;;22.20;59.00;;;;;;5054814;28;20168;-64
2022/12/22 03:36:38;;;;;;;7.07;1.33;;;22.20;58.80;;;;;;5054390;28;20176;-67
2022/12/22 03:39:05;;;;;;;5.33;1.20;;;22.40;58.50;;;;;;5053568;28;20296;-68
2022/12/22 03:47:03;;;;;;;3.90;1.13;;;22.30;58.00;;;;;;5054599;28;20544;-68
2022/12/22 03:49:31;;;;;;;2.93;1.40;;;22.20;58.50;;;;;;5054034;28;20226;-68
2022/12/22 03:52:01;;;;;;;4.93;1.23;;;22.30;58.90;;;;;;5054573;28;20199;-67
2022/12/22 03:54:29;;;;;;;2.13;1.03;;;22.40;58.70;;;;;;5051357;28;20180;-66
2022/12/22 03:56:56;;;;;;;3.27;1.00;;;22.50;58.20;;;;;;5039299;28;20554;-73
2022/12/22 03:59:23;;;;;;;4.23;1.07;;;22.50;57.40;;;;;;5052734;28;20219;-68
2022/12/22 04:01:53;;;;;;;2.53;1.03;;;22.40;57.30;;;;;;5053687;28;20512;-71
2022/12/22 04:04:23;;;;;;;3.60;1.10;;;22.40;55.70;;;;;;5051699;28;20180;-69
2022/12/22 04:06:51;;;;;;;6.10;1.60;;;22.50;54.80;;;;;;5049043;28;21337;-69
2022/12/22 04:09:19;;;;;;;4.83;1.50;;;22.60;55.00;;;;;;5053483;28;20660;-66
2022/12/22 04:14:32;;;;;;;2.87;1.00;;;23.00;53.20;;;;;;5051000;28;20279;-69
2022/12/22 04:16:59;;;;;;;4.30;1.33;;;22.80;53.70;;;;;;5053198;28;20216;-71
2022/12/22 04:19:26;;;;;;;2.63;1.17;;;22.80;54.30;;;;;;5052729;28;20222;-70
2022/12/22 04:21:55;;;;;;;3.93;1.00;;;22.50;54.70;;;;;;5047311;28;20180;-65
2022/12/22 04:24:22;;;;;;;4.10;1.10;;;22.50;54.90;;;;;;5051242;28;20700;-71
2022/12/22 04:26:52;;;;;;;4.03;1.20;;;22.70;55.10;;;;;;5052661;28;20195;-71
2022/12/22 04:29:19;;;;;;;4.53;1.10;;;22.50;55.20;;;;;;5047150;28;20188;-70
2022/12/22 04:31:46;;;;;;;5.13;1.50;;;22.30;55.30;;;;;;5050086;28;20191;-66
2022/12/22 04:34:13;;;;;;;2.17;0.90;;;22.30;55.40;;;;;;5052264;28;20528;-69
2022/12/22 04:36:41;;;;;;;6.17;1.30;;;22.30;55.60;;;;;;5050065;28;20196;-66
2022/12/22 04:39:14;;;;;;;3.97;1.40;;;22.30;56.50;;;;;;5052179;28;20242;-70
2022/12/22 04:41:43;;;;;;;3.80;1.30;;;22.30;56.80;;;;;;5051768;28;20184;-68
2022/12/22 04:44:23;;;;;;;4.97;1.30;;;22.30;56.90;;;;;;5047802;28;20183;-70
2022/12/22 04:46:50;;;;;;;3.60;1.10;;;22.30;58.20;;;;;;5050095;28;20187;-72
2022/12/22 04:49:21;;;;;;;4.83;1.20;;;22.40;59.30;;;;;;5049841;28;20303;-71
2022/12/22 04:51:51;;;;;;;7.00;1.73;;;22.40;60.50;;;;;;5052734;28;20656;-69
2022/12/22 04:54:22;;;;;;;3.90;1.07;;;22.70;60.00;;;;;;5051097;28;20180;-70
2022/12/22 04:56:51;;;;;;;6.17;1.17;;;22.80;58.70;;;;;;5045879;28;20206;-68
2022/12/22 04:59:19;;;;;;;2.87;1.23;;;22.60;58.60;;;;;;5047590;28;20266;-76
2022/12/22 05:01:46;;;;;;;3.23;1.17;;;22.60;58.00;;;;;;5043711;28;20184;-68
2022/12/22 05:04:13;;;;;;;5.50;1.10;;;22.60;58.30;;;;;;5044676;28;20648;-67
2022/12/22 05:06:41;;;;;;;6.90;1.40;;;22.20;58.90;;;;;;5048940;28;20180;-67
2022/12/22 05:09:09;;;;;;;5.40;1.30;;;22.20;59.40;;;;;;5047095;28;20190;-65
2022/12/22 05:11:37;;;;;;;6.67;1.33;;;22.00;59.30;;;;;;5043383;28;20634;-65
2022/12/22 05:14:05;;;;;;;4.53;1.20;;;22.00;59.80;;;;;;5051239;28;20187;-67
2022/12/22 05:16:33;;;;;;;3.40;1.20;;;22.10;59.70;;;;;;5049152;28;20654;-68
2022/12/22 05:19:00;;;;;;;4.23;1.00;;;22.10;59.40;;;;;;5050446;28;20223;-70
2022/12/22 05:21:27;;;;;;;3.87;1.10;;;22.00;59.30;;;;;;5049319;28;20258;-66
2022/12/22 05:23:54;;;;;;;1.93;0.90;;;22.10;59.30;;;;;;5045885;28;20191;-70
2022/12/22 05:26:22;;;;;;;8.00;1.10;;;21.90;58.20;;;;;;5049320;28;20270;-71
2022/12/22 05:28:49;;;;;;;4.07;1.43;;;21.80;59.50;;;;;;5047255;28;20191;-64
2022/12/22 05:31:19;;;;;;;3.53;1.07;;;21.80;60.00;;;;;;5048695;28;20616;-67
2022/12/22 05:33:47;;;;;;;2.73;1.17;;;21.70;60.70;;;;;;5052812;28;20219;-65
2022/12/22 05:36:16;;;;;;;6.70;1.00;;;21.60;61.40;;;;;;5042238;28;20267;-64
2022/12/22 05:38:46;;;;;;;9.67;1.70;;;21.60;62.00;;;;;;5048661;28;20212;-69
2022/12/22 05:41:14;;;;;;;4.87;1.13;;;21.50;60.90;;;;;;5050878;28;20222;-65
2022/12/22 05:43:41;;;;;;;4.27;1.10;;;21.50;61.00;;;;;;5050233;28;20278;-68
2022/12/22 05:46:11;;;;;;;6.73;1.20;;;21.40;61.60;;;;;;5052177;28;20184;-67
2022/12/22 05:48:38;;;;;;;5.00;1.43;;;21.30;62.40;;;;;;5048109;28;20182;-66
2022/12/22 05:51:08;;;;;;;5.40;1.50;;;21.50;62.50;;;;;;5051315;28;20196;-66
2022/12/22 05:53:36;;;;;;;4.50;1.10;;;21.60;65.60;;;;;;5050156;28;20179;-70
2022/12/22 05:56:04;;;;;;;3.97;1.20;;;21.30;69.10;;;;;;5050333;28;20184;-68
2022/12/22 05:58:31;;;;;;;2.70;1.20;;;21.40;72.10;;;;;;5046932;28;20566;-67
2022/12/22 06:01:00;;;;;;;6.60;1.53;;;21.00;71.00;;;;;;5052193;28;20188;-68
2022/12/22 06:03:29;;;;;;;4.60;1.77;;;20.90;72.90;;;;;;5051758;28;20183;-67
2022/12/22 06:05:56;;;;;;;5.30;1.50;;;20.80;73.40;;;;;;5052453;28;20626;-76
2022/12/22 06:08:24;;;;;;;3.53;1.50;;;20.70;73.40;;;;;;5045667;28;20259;-69
2022/12/22 06:10:54;;;;;;;9.53;1.90;;;20.70;72.50;;;;;;5038697;28;20187;-73
2022/12/22 06:13:22;;;;;;;3.47;1.30;;;20.70;73.10;;;;;;5051554;28;20544;-74
2022/12/22 06:15:49;;;;;;;5.17;1.90;;;20.60;72.00;;;;;;5047903;28;20202;-75
2022/12/22 06:18:17;;;;;;;4.30;1.23;;;20.50;73.50;;;;;;5051839;28;20195;-76
2022/12/22 06:20:50;;;;;;;5.20;1.37;;;20.30;72.00;;;;;;5048948;28;20555;-77
2022/12/22 06:23:17;;;;;;;5.37;1.70;;;20.40;73.30;;;;;;5045221;28;20658;-79
2022/12/22 06:26:00;;;;;;;3.50;1.60;;;20.50;74.00;;;;;;5048160;28;20723;-69
2022/12/22 06:28:28;;;;;;;13.27;1.70;;;20.60;73.90;;;;;;5048070;28;20168;-76
2022/12/22 06:30:56;;;;;;;7.33;1.90;;;20.50;73.00;;;;;;5050984;28;20650;-79
2022/12/22 06:33:23;;;;;;;3.57;1.50;;;20.40;72.60;;;;;;5052408;28;20172;-78
2022/12/22 06:35:50;;;;;;;7.17;1.60;;;20.30;73.00;;;;;;5055223;28;20545;-74
2022/12/22 06:38:18;;;;;;;6.30;1.50;;;20.30;73.30;;;;;;5055753;28;20203;-72
2022/12/22 06:40:46;;;;;;;5.67;1.50;;;20.30;73.10;;;;;;5050837;28;20581;-74
2022/12/22 06:43:13;;;;;;;8.03;1.63;;;20.30;73.20;;;;;;5051955;28;20709;-74
2022/12/22 06:45:42;;;;;;;6.10;1.30;;;20.30;73.00;;;;;;5055377;28;21013;-74
2022/12/22 06:48:11;;;;;;;4.40;1.40;;;20.30;73.40;;;;;;5052582;28;20264;-70
2022/12/22 06:50:39;;;;;;;4.83;1.30;;;20.30;73.30;;;;;;5053299;28;20231;-74
2022/12/22 06:53:07;;;;;;;6.53;1.60;;;20.20;73.90;;;;;;5053918;28;20182;-73
2022/12/22 06:55:35;;;;;;;3.83;1.47;;;20.20;73.20;;;;;;5044652;28;20702;-73
2022/12/22 06:58:03;;;;;;;4.47;1.23;;;20.30;74.10;;;;;;5046626;28;20208;-73
2022/12/22 07:00:31;;;;;;;4.07;1.30;;;20.30;74.70;;;;;;5054828;28;20241;-73
2022/12/22 07:02:58;;;;;;;7.20;1.70;;;20.30;75.00;;;;;;5053935;28;20607;-74
2022/12/22 07:05:26;;;;;;;6.33;1.53;;;20.30;75.30;;;;;;5054368;28;20207;-73
2022/12/22 07:07:53;;;;;;;12.20;1.90;;;20.30;75.90;;;;;;5050122;28;20184;-73
2022/12/22 07:10:56;;;;;;;3.90;1.47;;;20.20;76.30;;;;;;5047931;28;20180;-76
2022/12/22 07:13:18;;;;;;;6.93;1.40;;;20.00;76.70;;;;;;5054531;28;20198;-77
2022/12/22 07:15:46;;;;;;;8.13;1.80;;;19.90;76.90;;;;;;5055038;28;20605;-75
2022/12/22 07:18:14;;;;;;;6.20;1.80;;;19.90;78.20;;;;;;5054166;28;20253;-78
2022/12/22 07:20:41;;;;;;;5.00;2.03;;;19.90;78.50;;;;;;5054794;28;20203;-75
2022/12/22 07:23:08;;;;;;;5.23;1.97;;;19.80;78.70;;;;;;5054175;28;20554;-71
2022/12/22 07:25:36;;;;;;;4.47;1.87;;;19.80;78.60;;;;;;5054207;28;20183;-76
2022/12/22 07:28:05;;;;;;;6.00;1.80;;;19.80;79.90;;;;;;5053306;28;20271;-75
2022/12/22 07:30:32;;;;;;;4.17;1.53;;;19.80;80.10;;;;;;5055014;28;20180;-72
2022/12/22 07:33:00;;;;;;;6.22;1.90;;;19.80;80.40;;;;;;5053901;28;20404;-75
2022/12/22 07:35:27;;;;;;;5.33;2.00;;;19.70;80.60;;;;;;5054475;28;20175;-73
2022/12/22 07:37:54;;;;;;;7.57;1.70;;;19.70;80.40;;;;;;5046671;28;20195;-69
2022/12/22 07:40:22;;;;;;;7.43;2.20;;;19.50;81.10;;;;;;5052329;28;20216;-73
2022/12/22 07:42:49;;;;;;;5.93;1.90;;;19.50;81.70;;;;;;5053801;28;20171;-70
2022/12/22 07:45:19;;;;;;;6.03;1.87;;;19.50;82.40;;;;;;5054322;28;20626;-70
2022/12/22 07:47:47;;;;;;;10.70;2.13;;;19.40;82.70;;;;;;5053271;28;20255;-70
2022/12/22 07:50:26;;;;;;;6.37;2.07;;;19.40;84.00;;;;;;5052742;28;20228;-71
2022/12/22 07:52:54;;;;;;;9.13;2.30;;;19.40;84.20;;;;;;5054736;28;20261;-70
2022/12/22 07:55:23;;;;;;;8.27;2.23;;;19.40;83.40;;;;;;5053805;28;20180;-69
2022/12/22 07:57:51;;;;;;;5.07;2.13;;;19.40;84.20;;;;;;5065588;28;20168;-70
2022/12/22 08:00:19;;;;;;;9.03;2.30;;;19.30;84.20;;;;;;5050675;28;20180;-71
2022/12/22 08:03:05;;;;;;;8.43;2.50;;;19.40;84.20;;;;;;5050364;28;20682;-70
2022/12/22 08:05:32;;;;;;;11.10;4.00;;;19.30;84.00;;;;;;5053505;28;20709;-67
2022/12/22 08:07:59;;;;;;;9.27;3.10;;;19.30;84.10;;;;;;5053643;28;20269;-70
2022/12/22 08:10:27;;;;;;;6.40;2.80;;;19.30;84.30;;;;;;5052695;28;20669;-73
2022/12/22 08:12:55;;;;;;;6.13;2.50;;;19.20;84.80;;;;;;5041815;28;20239;-71
2022/12/22 08:15:22;;;;;;;7.93;3.37;;;19.30;85.20;;;;;;5052935;28;20631;-70
2022/12/22 08:17:50;;;;;;;10.10;2.50;;;19.30;85.20;;;;;;5052336;28;20183;-71
2022/12/22 08:20:17;;;;;;;10.43;2.77;;;19.20;84.30;;;;;;5053527;28;20233;-72
2022/12/22 08:22:44;;;;;;;9.23;2.27;;;19.20;84.90;;;;;;5054213;28;20698;-70
2022/12/22 08:25:12;;;;;;;7.07;2.57;;;19.10;84.80;;;;;;5053675;28;20261;-71
2022/12/22 08:27:54;;;;;;;7.33;1.93;;;19.10;84.30;;;;;;5053788;28;20262;-73
2022/12/22 08:30:21;;;;;;;6.63;2.17;;;19.00;84.40;;;;;;5049933;28;20188;-72
2022/12/22 08:32:50;;;;;;;8.80;2.10;;;19.00;85.00;;;;;;5053576;28;20250;-74
2022/12/22 08:35:18;;;;;;;6.67;2.30;;;19.10;84.90;;;;;;5050367;28;20279;-72
2022/12/22 08:37:47;;;;;;;7.23;1.70;;;19.10;85.30;;;;;;5053558;28;20183;-69
2022/12/22 08:40:33;;;;;;;6.63;2.20;;;19.10;85.20;;;;;;5052522;28;20184;-69
2022/12/22 08:43:05;;;;;;;7.73;2.80;;;19.00;85.50;;;;;;5050681;28;20249;-73
2022/12/22 08:45:33;;;;;;;5.30;1.70;;;19.10;85.90;;;;;;5049222;28;20183;-74
2022/12/22 08:48:00;;;;;;;9.03;1.93;;;19.10;86.10;;;;;;5053415;28;20214;-71
2022/12/22 08:50:27;;;;;;;7.80;2.13;;;19.10;85.70;;;;;;5052824;28;20223;-72
2022/12/22 08:53:05;;;;;;;7.33;1.90;;;19.00;85.70;;;;;;5045126;28;20188;-71
2022/12/22 08:55:32;;;;;;;9.00;2.37;;;19.10;85.80;;;;;;5047609;28;20549;-71
2022/12/22 08:58:00;;;;;;;5.77;2.10;;;19.10;86.40;;;;;;5049681;28;20278;-72
2022/12/22 09:00:27;;;;;;;7.07;2.00;;;19.10;86.00;;;;;;5051912;28;20198;-74
2022/12/22 09:02:55;;;;;;;10.90;2.10;;;19.00;86.10;;;;;;5052664;28;20186;-71
2022/12/22 09:05:22;;;;;;;5.40;1.60;;;19.00;86.00;;;;;;5050746;28;20233;-71
2022/12/22 09:07:49;;;;;;;7.40;2.20;;;18.90;85.90;;;;;;5053223;28;20190;-73
2022/12/22 09:10:17;;;;;;;5.03;1.70;;;19.00;86.20;;;;;;5051646;28;20179;-74
2022/12/22 09:12:46;;;;;;;13.23;1.83;;;18.90;85.90;;;;;;5052799;28;20206;-73
2022/12/22 09:15:14;;;;;;;9.23;2.20;;;18.90;85.90;;;;;;5052727;28;20184;-75
2022/12/22 09:17:42;;;;;;;6.17;2.10;;;18.90;85.90;;;;;;5052304;28;20187;-74
2022/12/22 09:20:10;;;;;;;7.70;1.60;;;18.90;86.10;;;;;;5050774;28;20184;-76
2022/12/22 09:22:37;;;;;;;3.47;1.57;;;18.80;86.10;;;;;;5050635;28;20184;-74
2022/12/22 09:25:05;;;;;;;3.90;1.97;;;18.80;86.30;;;;;;5052304;28;20267;-71
2022/12/22 09:27:32;;;;;;;6.70;1.97;;;18.80;86.30;;;;;;5049852;28;20317;-71
2022/12/22 09:30:00;;;;;;;10.37;2.50;;;18.80;86.20;;;;;;5052303;28;20188;-71
2022/12/22 09:32:28;;;;;;;9.73;2.77;;;18.80;86.50;;;;;;5052026;28;20183;-76
2022/12/22 09:34:55;;;;;;;4.77;2.00;;;18.80;86.50;;;;;;5051593;28;20202;-79
2022/12/22 09:37:22;;;;;;;6.03;1.93;;;18.80;86.30;;;;;;5052425;28;20634;-79
2022/12/22 09:39:49;;;;;;;11.47;2.13;;;18.80;86.10;;;;;;5053495;28;20215;-74
2022/12/22 09:42:22;;;;;;;6.60;1.80;;;18.80;86.30;;;;;;5051102;28;20186;-79
2022/12/22 09:44:51;;;;;;;8.13;1.80;;;18.80;86.10;;;;;;5052579;28;20184;-71
2022/12/22 09:47:38;;;;;;;7.30;1.67;;;18.80;86.20;;;;;;5052280;28;20226;-75
2022/12/22 09:50:10;;;;;;;9.80;2.00;;;18.80;85.60;;;;;;5051366;28;20238;-75
2022/12/22 09:52:37;;;;;;;8.63;2.00;;;18.80;85.50;;;;;;5050633;28;20273;-76
2022/12/22 09:55:24;;;;;;;6.63;1.70;;;18.80;85.80;;;;;;5056251;28;20183;-75
2022/12/22 09:57:56;;;;;;;6.07;1.40;;;18.80;85.80;;;;;;5055980;28;20188;-76
2022/12/22 10:00:26;;;;;;;9.60;1.83;;;18.80;86.10;;;;;;5051420;28;20180;-81
2022/12/22 10:03:06;;;;;;;7.27;2.50;;;18.80;86.10;;;;;;5052290;28;20263;-79
2022/12/22 10:06:13;;;;;;;7.20;1.80;;;18.80;86.30;;;;;;5049599;28;20210;-75
2022/12/22 10:08:41;;;;;;;9.90;2.40;;;18.80;86.60;;;;;;5047858;28;20183;-76
2022/12/22 10:11:17;;;;;;;9.03;2.20;;;18.80;86.80;;;;;;5056272;28;20657;-77
2022/12/22 10:13:45;;;;;;;7.67;2.13;;;18.80;86.60;;;;;;5056096;28;20203;-76
2022/12/22 10:16:20;;;;;;;9.70;2.10;;;18.70;86.40;;;;;;5056169;28;20226;-76
2022/12/22 10:19:05;;;;;;;5.40;1.90;;;18.70;86.30;;;;;;5052024;28;20297;-78
2022/12/22 10:21:32;;;;;;;10.73;2.40;;;18.70;86.40;;;;;;5050249;28;20191;-76
2022/12/22 10:24:00;;;;;;;4.93;1.87;;;18.70;86.40;;;;;;5055319;28;20184;-76
2022/12/22 10:26:33;;;;;;;10.00;2.37;;;18.70;85.90;;;;;;5053361;28;20184;-73
2022/12/22 10:29:09;;;;;;;9.93;1.77;;;18.70;86.00;;;;;;5054519;28;20180;-74
2022/12/22 10:31:55;;;;;;;8.63;1.67;;;18.70;86.00;;;;;;5061903;28;20194;-75
2022/12/22 10:34:23;;;;;;;5.40;1.60;;;18.70;85.30;;;;;;5054178;28;20180;-74
2022/12/22 10:36:54;;;;;;;6.33;1.70;;;18.80;85.80;;;;;;5055585;28;20192;-69
2022/12/22 10:39:25;;;;;;;7.37;1.53;;;18.70;85.40;;;;;;5055770;28;20746;-76
2022/12/22 10:41:55;;;;;;;8.53;1.77;;;18.70;85.80;;;;;;5055877;28;20184;-72
2022/12/22 10:44:36;;;;;;;5.10;1.70;;;18.70;85.50;;;;;;5055524;28;20180;-67
2022/12/22 10:47:16;;;;;;;7.63;1.97;;;18.70;85.50;;;;;;5054540;28;20175;-73
2022/12/22 10:49:47;;;;;;;8.77;2.00;;;18.70;85.60;;;;;;5054131;27;20231;-77
2022/12/22 10:52:29;;;;;;;6.30;1.87;;;18.70;85.50;;;;;;5055866;28;20180;-72
2022/12/22 10:55:16;;;;;;;7.40;1.73;;;18.70;85.50;;;;;;5052459;28;20172;-75
2022/12/22 10:57:43;;;;;;;12.90;5.27;;;18.70;85.80;;;;;;5054255;28;20176;-74
2022/12/22 11:00:25;;;;;;;10.90;4.50;;;18.70;84.90;;;;;;5056416;28;20219;-75
2022/12/22 11:02:54;;;;;;;10.80;2.60;;;18.70;85.00;;;;;;5053774;28;20176;-75
2022/12/22 11:05:22;;;;;;;4.10;1.57;;;18.70;85.00;;;;;;5052802;28;20638;-77
2022/12/22 11:07:50;;;;;;;6.17;2.03;;;18.80;85.30;;;;;;5047155;28;20188;-74
2022/12/22 11:10:22;;;;;;;7.60;2.23;;;18.70;85.10;;;;;;5055405;28;20188;-69
2022/12/22 11:12:55;;;;;;;4.40;1.77;;;18.70;85.30;;;;;;5049766;28;20199;-69
2022/12/22 11:15:42;;;;;;;7.03;1.93;;;18.70;85.40;;;;;;5047583;28;20529;-69
2022/12/22 11:18:21;;;;;;;2.93;1.43;;;18.70;85.30;;;;;;5051738;28;20195;-69
2022/12/22 11:21:18;;;;;;;7.30;1.50;;;18.60;85.30;;;;;;5049739;28;20245;-75
2022/12/22 11:24:24;;;;;;;7.50;2.13;;;18.60;85.30;;;;;;5052054;28;20604;-71
2022/12/22 11:27:23;;;;;;;6.43;1.80;;;18.60;85.40;;;;;;5044300;28;20218;-72
2022/12/22 11:30:02;;;;;;;10.17;1.80;;;18.60;85.70;;;;;;5047242;28;20192;-69
2022/12/22 11:32:57;;;;;;;7.17;1.80;;;18.60;85.60;;;;;;5054675;28;20191;-69
2022/12/22 11:35:33;;;;;;;5.00;1.60;;;18.60;85.60;;;;;;5048814;28;20532;-69
2022/12/22 11:38:15;;;;;;;5.03;1.60;;;18.70;85.90;;;;;;5055529;28;20187;-71
2022/12/22 11:40:47;;;;;;;7.47;1.67;;;18.60;85.90;;;;;;5052384;28;20253;-74
2022/12/22 11:44:02;;;;;;;11.93;2.10;;;18.60;85.90;;;;;;5053865;28;20176;-71
2022/12/22 11:47:00;;;;;;;14.90;11.17;;;18.60;86.20;;;;;;5036769;28;20264;-71
2022/12/22 11:49:36;;;;;;;13.73;9.97;;;18.50;86.40;;;;;;5050013;28;20294;-70
2022/12/22 11:52:20;;;;;;;4.50;2.00;;;18.50;86.60;;;;;;5054351;28;20188;-67
2022/12/22 11:54:53;;;;;;;8.07;2.17;;;18.50;86.70;;;;;;5055045;28;20314;-70
2022/12/22 11:57:29;;;;;;;6.43;2.00;;;18.50;86.50;;;;;;5053450;28;20568;-69
2022/12/22 12:00:02;;;;;;;7.73;1.97;;;18.50;86.80;;;;;;5054111;28;20218;-71
2022/12/22 12:02:30;;;;;;;4.60;2.17;;;18.60;86.90;;;;;;5053643;28;20172;-71
2022/12/22 12:05:18;;;;;;;3.27;1.50;;;18.50;86.80;;;;;;5053511;28;20188;-70
2022/12/22 12:07:50;;;;;;;9.80;1.67;;;18.50;86.70;;;;;;5054418;28;20172;-70
2022/12/22 12:10:26;;;;;;;7.80;2.17;;;18.50;86.80;;;;;;5053665;28;20176;-68
2022/12/22 12:13:21;;;;;;;6.03;1.57;;;18.50;87.00;;;;;;5053968;28;20260;-68
2022/12/22 12:16:17;;;;;;;7.87;1.73;;;18.50;87.10;;;;;;5046157;28;20187;-67
2022/12/22 12:19:12;;;;;;;6.87;1.80;;;18.60;87.00;;;;;;5060988;28;20631;-68
2022/12/22 12:21:51;;;;;;;6.60;1.73;;;18.50;86.90;;;;;;5053929;28;20187;-77
2022/12/22 12:24:45;;;;;;;6.00;1.80;;;18.50;87.00;;;;;;5047749;28;20591;-72
2022/12/22 12:27:46;;;;;;;8.97;2.00;;;18.50;87.10;;;;;;5053531;28;20192;-68
2022/12/22 12:30:22;;;;;;;11.10;1.80;;;18.50;87.60;;;;;;5053466;28;20180;-74
2022/12/22 12:33:17;;;;;;;3.63;1.30;;;18.60;87.50;;;;;;5052912;28;20187;-74
2022/12/22 12:36:03;;;;;;;7.07;2.03;;;18.50;87.30;;;;;;5047515;28;20519;-69
2022/12/22 12:38:53;;;;;;;5.67;2.10;;;18.50;87.30;;;;;;5053264;28;20255;-69
2022/12/22 12:41:51;;;;;;;8.33;1.80;;;18.50;87.20;;;;;;5053584;28;20172;-69
2022/12/22 12:44:22;;;;;;;3.60;1.53;;;18.50;87.40;;;;;;5053461;28;20176;-68
2022/12/22 12:46:52;;;;;;;8.13;2.30;;;18.50;87.20;;;;;;5053786;28;20634;-74
2022/12/22 12:49:35;;;;;;;3.90;1.57;;;18.50;87.20;;;;;;5052911;28;20715;-67
2022/12/22 12:52:09;;;;;;;4.03;1.63;;;18.50;87.20;;;;;;5054997;28;20190;-67
2022/12/22 12:54:42;;;;;;;8.30;1.80;;;18.60;87.10;;;;;;5052906;28;20186;-68
2022/12/22 12:57:29;;;;;;;6.83;1.70;;;18.50;87.10;;;;;;5052891;28;20183;-69
2022/12/22 13:00:00;;;;;;;3.27;1.20;;;18.50;87.30;;;;;;5053000;28;20222;-67
2022/12/22 13:02:28;;;;;;;4.97;1.73;;;18.50;87.20;;;;;;5053149;28;20565;-68
2022/12/22 13:05:36;;;;;;;6.83;1.50;;;18.50;87.10;;;;;;5051677;28;20777;-68
2022/12/22 13:08:17;;;;;;;4.73;1.50;;;18.50;87.00;;;;;;5059799;28;20188;-68
2022/12/22 13:10:56;;;;;;;6.93;1.97;;;18.40;87.00;;;;;;5052126;28;20176;-68
2022/12/22 13:13:23;;;;;;;9.60;1.93;;;18.40;87.20;;;;;;5052764;28;20183;-68
2022/12/22 13:16:00;;;;;;;11.13;1.97;;;18.50;87.00;;;;;;5053394;28;20270;-67
2022/12/22 13:18:27;;;;;;;7.13;2.03;;;18.40;86.80;;;;;;5052474;28;20212;-68
2022/12/22 13:20:59;;;;;;;5.57;1.53;;;18.40;86.90;;;;;;5053696;28;20184;-68
2022/12/22 13:24:03;;;;;;;8.67;2.00;;;18.40;87.00;;;;;;5052975;28;20677;-68
2022/12/22 13:26:36;;;;;;;6.10;1.80;;;18.50;87.00;;;;;;5051837;28;20191;-68
2022/12/22 13:29:09;;;;;;;6.37;1.87;;;18.50;86.80;;;;;;5052409;28;20198;-66
2022/12/22 13:32:10;;;;;;;8.90;1.83;;;18.40;86.90;;;;;;5052467;28;20226;-73
2022/12/22 13:35:30;;;;;;;6.73;2.03;;;18.40;86.90;;;;;;5041758;28;20195;-70
2022/12/22 13:37:57;;;;;;;5.43;2.00;;;18.40;86.90;;;;;;5011063;28;20181;-76
2022/12/22 13:40:29;;;;;;;6.73;1.70;;;18.30;87.10;;;;;;5035773;28;20228;-74
2022/12/22 13:43:00;;;;;;;6.33;1.90;;;18.40;87.10;;;;;;5044850;28;20270;-73
2022/12/22 13:45:28;;;;;;;5.67;2.10;;;18.40;87.10;;;;;;5052375;28;20180;-68
2022/12/22 13:47:55;;;;;;;12.07;2.43;;;18.40;87.10;;;;;;5052156;28;20176;-66
2022/12/22 13:50:31;;;;;;;6.40;1.87;;;18.40;87.00;;;;;;5050893;28;20223;-69
2022/12/22 13:53:02;;;;;;;5.03;1.70;;;18.30;87.20;;;;;;5053319;28;20183;-68
2022/12/22 13:55:32;;;;;;;7.63;1.70;;;18.30;87.10;;;;;;5051273;28;20199;-69
2022/12/22 13:58:28;;;;;;;6.87;1.97;;;18.30;87.30;;;;;;5048579;28;20179;-68
2022/12/22 14:01:21;;;;;;;6.30;1.93;;;18.30;87.40;;;;;;5051618;28;20271;-68
2022/12/22 14:03:55;;;;;;;4.67;1.83;;;18.30;87.30;;;;;;5043987;28;20196;-69
2022/12/22 14:06:32;;;;;;;6.13;1.90;;;18.30;87.50;;;;;;5051418;28;20188;-68
2022/12/22 14:09:22;;;;;;;8.90;1.90;;;18.30;87.40;;;;;;5040798;28;20180;-66
2022/12/22 14:11:54;;;;;;;4.97;1.80;;;18.20;87.30;;;;;;5052270;28;20179;-68
2022/12/22 14:14:49;;;;;;;6.77;2.03;;;18.20;87.60;;;;;;5052488;28;20226;-66
2022/12/22 14:17:26;;;;;;;8.57;2.10;;;18.20;87.60;;;;;;5051524;28;20198;-66
2022/12/22 14:19:56;;;;;;;6.47;1.57;;;18.20;87.50;;;;;;5052168;28;20570;-67
2022/12/22 14:22:54;;;;;;;5.33;2.00;;;18.20;87.60;;;;;;5052187;28;20176;-66
2022/12/22 14:25:30;;;;;;;5.00;1.60;;;18.10;87.40;;;;;;5052180;28;20191;-66
2022/12/22 14:27:58;;;;;;;6.07;2.00;;;18.00;87.50;;;;;;5052826;28;20525;-68
2022/12/22 14:30:33;;;;;;;5.80;1.73;;;18.00;87.50;;;;;;5051105;28;20191;-67
2022/12/22 14:33:26;;;;;;;6.13;1.80;;;17.90;87.80;;;;;;5052064;28;20270;-67
2022/12/22 14:36:22;;;;;;;5.17;1.87;;;17.90;88.00;;;;;;5051038;28;20180;-68
2022/12/22 14:38:54;;;;;;;3.53;1.70;;;17.90;88.10;;;;;;5051287;28;20218;-69
2022/12/22 14:41:41;;;;;;;4.90;1.87;;;17.90;88.40;;;;;;5051887;28;20176;-67
2022/12/22 14:44:30;;;;;;;8.33;2.53;;;17.80;88.40;;;;;;5051428;28;20575;-70
2022/12/22 14:47:14;;;;;;;4.93;1.80;;;17.80;88.30;;;;;;5047357;28;20181;-71
2022/12/22 14:49:50;;;;;;;7.17;1.93;;;17.70;88.40;;;;;;5039978;28;20621;-68
2022/12/22 14:52:24;;;;;;;7.40;1.97;;;17.60;88.40;;;;;;5050030;28;20258;-70
2022/12/22 14:54:53;;;;;;;3.47;2.03;;;17.60;88.60;;;;;;5054128;28;20529;-67
2022/12/22 14:57:40;;;;;;;5.07;2.20;;;17.60;88.60;;;;;;5055104;28;20176;-70
2022/12/22 15:00:29;;;;;;;4.07;1.80;;;17.50;88.80;;;;;;5054044;28;20250;-67
2022/12/22 15:02:59;;;;;;;6.10;2.00;;;17.50;88.90;;;;;;5054863;28;20645;-68
2022/12/22 15:05:36;;;;;;;8.03;2.40;;;17.50;89.00;;;;;;5054479;28;20179;-69
2022/12/22 15:08:06;;;;;;;5.17;1.90;;;17.50;89.30;;;;;;5053632;28;20179;-75
2022/12/22 15:10:43;;;;;;;6.17;2.13;;;17.50;89.20;;;;;;5055167;28;20184;-74
2022/12/22 15:13:29;;;;;;;4.43;2.00;;;17.40;89.30;;;;;;5039538;28;20164;-72
2022/12/22 15:15:56;;;;;;;5.70;1.93;;;17.30;89.30;;;;;;5055313;28;20253;-67
2022/12/22 15:18:27;;;;;;;7.43;2.40;;;17.30;89.40;;;;;;5054020;28;20235;-73
2022/12/22 15:20:56;;;;;;;8.90;2.20;;;17.30;89.60;;;;;;5053627;28;20179;-67
2022/12/22 15:23:24;;;;;;;5.63;2.33;;;17.30;89.70;;;;;;5053233;28;20180;-71
2022/12/22 15:25:51;;;;;;;5.87;2.37;;;17.30;89.60;;;;;;5055125;28;20176;-67
2022/12/22 15:28:19;;;;;;;7.50;1.80;;;17.20;89.70;;;;;;5054956;28;20172;-69
2022/12/22 15:30:46;;;;;;;7.80;2.27;;;17.30;89.80;;;;;;5055168;28;20210;-67
2022/12/22 15:33:18;;;;;;;8.67;2.03;;;17.30;89.90;;;;;;5054598;28;20179;-72
2022/12/22 15:35:46;;;;;;;5.77;2.37;;;17.20;89.80;;;;;;5055671;28;20187;-69
2022/12/22 15:38:21;;;;;;;3.60;1.90;;;17.20;89.80;;;;;;5054913;28;20207;-74
2022/12/22 15:40:49;;;;;;;4.33;1.90;;;17.20;89.90;;;;;;5052980;28;20194;-70
2022/12/22 15:43:17;;;;;;;7.00;2.20;;;17.20;89.90;;;;;;5054768;28;20535;-69
2022/12/22 15:45:46;;;;;;;5.37;2.37;;;17.10;89.90;;;;;;5054918;28;20184;-73
2022/12/22 15:48:26;;;;;;;6.97;2.27;;;17.20;90.00;;;;;;5054392;28;20284;-73
2022/12/22 15:50:54;;;;;;;7.30;2.43;;;17.10;90.00;;;;;;5041726;28;20203;-69
2022/12/22 15:53:22;;;;;;;7.00;2.33;;;17.20;90.20;;;;;;5067188;28;20182;-73
2022/12/22 15:55:53;;;;;;;12.83;2.40;;;17.20;90.10;;;;;;5055448;28;20263;-75
2022/12/22 15:58:29;;;;;;;5.40;2.00;;;17.10;90.00;;;;;;5054600;28;20203;-70
2022/12/22 16:00:57;;;;;;;6.23;2.57;;;17.10;90.10;;;;;;5054078;28;20673;-74
2022/12/22 16:03:24;;;;;;;7.20;2.40;;;17.00;90.10;;;;;;5053820;28;20176;-75
2022/12/22 16:05:53;;;;;;;4.53;2.27;;;17.00;90.20;;;;;;5046624;28;20196;-68
2022/12/22 16:08:27;;;;;;;7.47;2.03;;;17.00;90.20;;;;;;5047075;28;20180;-76
2022/12/22 16:10:55;;;;;;;8.90;2.63;;;17.00;90.20;;;;;;5053782;28;20245;-68
2022/12/22 16:13:28;;;;;;;7.97;2.20;;;17.00;90.30;;;;;;5038174;28;20207;-68
2022/12/22 16:15:56;;;;;;;6.27;2.23;;;17.10;90.30;;;;;;5054399;28;20176;-70
2022/12/22 16:18:24;;;;;;;8.53;2.60;;;17.10;90.40;;;;;;5054204;28;20212;-70
2022/12/22 16:20:52;;;;;;;5.60;2.13;;;17.10;90.50;;;;;;5053197;28;20195;-68
2022/12/22 16:23:25;;;;;;;6.77;2.63;;;17.20;90.60;;;;;;5053977;28;20172;-68
2022/12/22 16:25:53;;;;;;;7.37;2.40;;;17.20;90.70;;;;;;5053169;28;20206;-68
2022/12/22 16:28:23;;;;;;;7.50;2.63;;;17.30;90.70;;;;;;5052227;28;20266;-68
2022/12/22 16:30:51;;;;;;;7.13;2.03;;;17.30;90.60;;;;;;5047915;28;20204;-68
2022/12/22 16:33:20;;;;;;;7.63;2.57;;;17.40;90.60;;;;;;5049962;28;20211;-67
2022/12/22 16:35:47;;;;;;;4.90;2.30;;;17.40;90.50;;;;;;5052335;28;20176;-67
2022/12/22 16:38:14;;;;;;;7.60;2.33;;;17.40;90.50;;;;;;5049081;28;20187;-67
2022/12/22 16:40:49;;;;;;;5.80;2.20;;;17.50;90.60;;;;;;5053059;28;20183;-68
2022/12/22 16:43:22;;;;;;;6.93;4.60;;;17.50;90.20;;;;;;5050600;28;20176;-67
2022/12/22 16:45:50;;;;;;;11.27;8.00;;;17.40;90.30;;;;;;5052368;28;20537;-69
2022/12/22 16:48:29;;;;;;;11.27;8.10;;;17.40;90.40;;;;;;5039492;28;20608;-67
2022/12/22 16:50:56;;;;;;;6.37;3.67;;;17.50;90.50;;;;;;5050173;28;20180;-68